Main page
METAR-TAF:

METAR-TAF

Airports :

Chabahar Konarak Airport

Chabahar, Iran

latitude: 25-25N, longitude: 060-45E, elevation: 6 m

Current weather observation

The report was made 1 hour and 6 minutes ago, at 07:00 UTC
Wind 18 kt from the Southeast
Temperature 37°C
Humidity 57%
Pressure 999 hPa
Visibility: 4000 m
sand,

METAR: OIZC 150700Z 14018KT 4000 SA NSC 37/27 Q0998 A2949

Time: 12:36 (08:06 UTC)

Forecast

The report was made 26 hours and 42 minutes ago, at 05:24 UTC
Forecast valid from 14 at 06 UTC to 15 at 12 UTC
Wind 8 kt from the Southeast
Visibility: 7000 m
Few clouds at a height of 2500 ft
Temporary
from 14 at 07 UTC to 14 at 15 UTC
Wind 18 kt from the South
Visibility: 3000 m
Few clouds at a height of 3000 ft, Towering cumulus.
sand
Becoming
from 14 at 18 UTC to 14 at 20 UTC
Visibility: 4000 m
Few clouds at a height of 2500 ft

TAF: OIZC 140524Z 1406/1512 13008KT 7000 FEW025 TEMPO 1407/1415 17018KT 3000 SA FEW030TCU BECMG 1418/1420 4000 HZ/BR FEW025

Weather observations and forecasts of more than 4000 airports (METAR and TAF reports).

The available stations are represented by yellow and red dots on the map.

Hover mouse over dot to see the name of the station.

Then click to see weather observations and forecasts.

To change the map : click on the green buttons with a black cross to zoom in, on the green button with a dash to zoom out, or on the green arrows for adjacent maps.


METAR-TAF: